sensor_id;sensor_type;location;lat;lon;timestamp;pressure;altitude;pressure_sealevel;temperature;humidity
35577;BME280;21680;52.400;16.920;2023-08-24T00:00:27;100923.48;;;19.52;60.52
35577;BME280;21680;52.400;16.920;2023-08-24T00:02:53;100917.02;;;19.43;60.82
35577;BME280;21680;52.400;16.920;2023-08-24T00:05:19;100919.47;;;19.35;61.12
35577;BME280;21680;52.400;16.920;2023-08-24T00:07:46;100920.55;;;19.30;61.36
35577;BME280;21680;52.400;16.920;2023-08-24T00:10:13;100920.11;;;19.27;61.52
35577;BME280;21680;52.400;16.920;2023-08-24T00:12:38;100922.90;;;19.26;61.62
35577;BME280;21680;52.400;16.920;2023-08-24T00:15:08;100921.32;;;19.23;61.75
35577;BME280;21680;52.400;16.920;2023-08-24T00:17:34;100921.66;;;19.23;61.73
35577;BME280;21680;52.400;16.920;2023-08-24T00:20:00;100921.44;;;19.21;61.75
35577;BME280;21680;52.400;16.920;2023-08-24T00:22:29;100921.68;;;19.20;62.03
35577;BME280;21680;52.400;16.920;2023-08-24T00:24:54;100916.73;;;19.21;62.22
35577;BME280;21680;52.400;16.920;2023-08-24T00:27:19;100918.67;;;19.22;62.26
35577;BME280;21680;52.400;16.920;2023-08-24T00:29:44;100919.61;;;19.21;62.29
35577;BME280;21680;52.400;16.920;2023-08-24T00:32:10;100922.26;;;19.22;62.50
35577;BME280;21680;52.400;16.920;2023-08-24T00:34:35;100924.26;;;19.22;62.50
35577;BME280;21680;52.400;16.920;2023-08-24T00:37:00;100925.66;;;19.21;62.59
35577;BME280;21680;52.400;16.920;2023-08-24T00:39:26;100922.36;;;19.19;62.54
35577;BME280;21680;52.400;16.920;2023-08-24T00:41:52;100923.36;;;19.17;62.61
35577;BME280;21680;52.400;16.920;2023-08-24T00:44:17;100924.13;;;19.14;62.84
35577;BME280;21680;52.400;16.920;2023-08-24T00:46:43;100925.41;;;19.11;62.93
35577;BME280;21680;52.400;16.920;2023-08-24T00:49:09;100922.45;;;19.07;63.05
35577;BME280;21680;52.400;16.920;2023-08-24T00:51:34;100930.17;;;19.08;63.24
35577;BME280;21680;52.400;16.920;2023-08-24T00:53:59;100929.77;;;19.09;63.31
35577;BME280;21680;52.400;16.920;2023-08-24T00:56:25;100930.78;;;19.10;63.31
35577;BME280;21680;52.400;16.920;2023-08-24T00:58:52;100931.79;;;19.09;63.20
35577;BME280;21680;52.400;16.920;2023-08-24T01:01:19;100930.99;;;19.05;63.32
35577;BME280;21680;52.400;16.920;2023-08-24T01:03:45;100933.79;;;19.01;63.40
35577;BME280;21680;52.400;16.920;2023-08-24T01:06:10;100934.32;;;18.99;63.52
35577;BME280;21680;52.400;16.920;2023-08-24T01:08:35;100934.51;;;18.99;63.51
35577;BME280;21680;52.400;16.920;2023-08-24T01:14:02;100927.75;;;18.92;63.83
35577;BME280;21680;52.400;16.920;2023-08-24T01:16:31;100928.98;;;18.88;63.89
35577;BME280;21680;52.400;16.920;2023-08-24T01:18:59;100930.33;;;18.87;64.10
35577;BME280;21680;52.400;16.920;2023-08-24T01:21:26;100930.65;;;18.87;64.21
35577;BME280;21680;52.400;16.920;2023-08-24T01:24:08;100936.21;;;18.85;64.20
35577;BME280;21680;52.400;16.920;2023-08-24T01:26:35;100938.00;;;18.83;64.33
35577;BME280;21680;52.400;16.920;2023-08-24T01:29:01;100933.25;;;18.81;64.36
35577;BME280;21680;52.400;16.920;2023-08-24T01:31:29;100935.40;;;18.82;64.46
35577;BME280;21680;52.400;16.920;2023-08-24T01:33:55;100929.30;;;18.78;64.43
35577;BME280;21680;52.400;16.920;2023-08-24T01:36:21;100931.65;;;18.76;64.56
35577;BME280;21680;52.400;16.920;2023-08-24T01:39:03;100931.72;;;18.75;64.62
35577;BME280;21680;52.400;16.920;2023-08-24T01:41:35;100931.28;;;18.76;64.55
35577;BME280;21680;52.400;16.920;2023-08-24T01:44:04;100934.50;;;18.77;64.81
35577;BME280;21680;52.400;16.920;2023-08-24T01:46:33;100936.25;;;18.77;64.77
35577;BME280;21680;52.400;16.920;2023-08-24T01:48:59;100935.03;;;18.79;64.79
35577;BME280;21680;52.400;16.920;2023-08-24T01:51:26;100933.85;;;18.78;64.74
35577;BME280;21680;52.400;16.920;2023-08-24T01:53:52;100928.45;;;18.73;64.89
35577;BME280;21680;52.400;16.920;2023-08-24T01:56:18;100929.94;;;18.72;64.85
35577;BME280;21680;52.400;16.920;2023-08-24T01:58:43;100926.70;;;18.70;64.92
35577;BME280;21680;52.400;16.920;2023-08-24T02:01:09;100929.22;;;18.65;64.90
35577;BME280;21680;52.400;16.920;2023-08-24T02:03:35;100931.55;;;18.60;65.03
35577;BME280;21680;52.400;16.920;2023-08-24T02:06:01;100929.39;;;18.57;65.19
35577;BME280;21680;52.400;16.920;2023-08-24T02:08:26;100931.17;;;18.55;65.18
35577;BME280;21680;52.400;16.920;2023-08-24T02:10:52;100933.95;;;18.51;65.14
35577;BME280;21680;52.400;16.920;2023-08-24T02:13:17;100935.85;;;18.48;65.31
35577;BME280;21680;52.400;16.920;2023-08-24T02:15:42;100940.05;;;18.45;65.48
35577;BME280;21680;52.400;16.920;2023-08-24T02:18:08;100940.44;;;18.42;65.43
35577;BME280;21680;52.400;16.920;2023-08-24T02:20:37;100940.26;;;18.39;65.72
35577;BME280;21680;52.400;16.920;2023-08-24T02:23:03;100938.48;;;18.36;65.77
35577;BME280;21680;52.400;16.920;2023-08-24T02:25:29;100939.73;;;18.34;65.80
35577;BME280;21680;52.400;16.920;2023-08-24T02:27:54;100938.34;;;18.31;65.81
35577;BME280;21680;52.400;16.920;2023-08-24T02:30:20;100939.29;;;18.28;65.97
35577;BME280;21680;52.400;16.920;2023-08-24T02:32:45;100934.66;;;18.24;65.92
35577;BME280;21680;52.400;16.920;2023-08-24T02:35:10;100935.22;;;18.21;66.36
35577;BME280;21680;52.400;16.920;2023-08-24T02:37:36;100938.42;;;18.20;66.36
35577;BME280;21680;52.400;16.920;2023-08-24T02:40:01;100939.88;;;18.20;66.29
35577;BME280;21680;52.400;16.920;2023-08-24T02:42:26;100938.65;;;18.17;66.40
35577;BME280;21680;52.400;16.920;2023-08-24T02:44:52;100939.34;;;18.14;66.55
35577;BME280;21680;52.400;16.920;2023-08-24T02:47:17;100936.60;;;18.10;66.57
35577;BME280;21680;52.400;16.920;2023-08-24T02:49:42;100936.28;;;18.07;66.59
35577;BME280;21680;52.400;16.920;2023-08-24T02:52:07;100934.98;;;18.04;66.82
35577;BME280;21680;52.400;16.920;2023-08-24T02:54:33;100936.42;;;18.05;66.98
35577;BME280;21680;52.400;16.920;2023-08-24T02:56:58;100930.37;;;18.03;66.92
35577;BME280;21680;52.400;16.920;2023-08-24T02:59:23;100932.30;;;17.99;66.95
35577;BME280;21680;52.400;16.920;2023-08-24T03:01:49;100933.61;;;17.96;67.11
35577;BME280;21680;52.400;16.920;2023-08-24T03:04:14;100926.52;;;17.91;66.90
35577;BME280;21680;52.400;16.920;2023-08-24T03:06:39;100930.55;;;17.88;67.34
35577;BME280;21680;52.400;16.920;2023-08-24T03:09:04;100930.73;;;17.85;67.32
35577;BME280;21680;52.400;16.920;2023-08-24T03:11:29;100926.56;;;17.82;67.43
35577;BME280;21680;52.400;16.920;2023-08-24T03:13:55;100925.77;;;17.81;67.38
35577;BME280;21680;52.400;16.920;2023-08-24T03:16:20;100927.04;;;17.78;67.58
35577;BME280;21680;52.400;16.920;2023-08-24T03:18:45;100927.86;;;17.77;67.68
35577;BME280;21680;52.400;16.920;2023-08-24T03:21:11;100925.48;;;17.75;67.56
35577;BME280;21680;52.400;16.920;2023-08-24T03:23:36;100926.71;;;17.72;67.79
35577;BME280;21680;52.400;16.920;2023-08-24T03:26:01;100929.14;;;17.71;67.86
35577;BME280;21680;52.400;16.920;2023-08-24T03:28:27;100925.69;;;17.72;68.07
35577;BME280;21680;52.400;16.920;2023-08-24T03:30:53;100925.98;;;17.73;68.16
35577;BME280;21680;52.400;16.920;2023-08-24T03:33:20;100928.61;;;17.71;68.29
35577;BME280;21680;52.400;16.920;2023-08-24T03:35:45;100930.14;;;17.70;68.22
35577;BME280;21680;52.400;16.920;2023-08-24T03:38:11;100928.42;;;17.69;68.35
35577;BME280;21680;52.400;16.920;2023-08-24T03:40:36;100926.27;;;17.66;68.49
35577;BME280;21680;52.400;16.920;2023-08-24T03:43:03;100927.01;;;17.63;68.49
35577;BME280;21680;52.400;16.920;2023-08-24T03:45:28;100925.89;;;17.60;68.59
35577;BME280;21680;52.400;16.920;2023-08-24T03:47:54;100926.41;;;17.58;68.59
35577;BME280;21680;52.400;16.920;2023-08-24T03:50:20;100926.73;;;17.56;68.66
35577;BME280;21680;52.400;16.920;2023-08-24T03:52:47;100930.67;;;17.54;68.75
35577;BME280;21680;52.400;16.920;2023-08-24T03:55:13;100933.60;;;17.48;68.95
35577;BME280;21680;52.400;16.920;2023-08-24T03:57:38;100937.95;;;17.43;69.08
35577;BME280;21680;52.400;16.920;2023-08-24T04:00:07;100935.67;;;17.39;69.10
35577;BME280;21680;52.400;16.920;2023-08-24T04:02:37;100940.89;;;17.37;69.21
35577;BME280;21680;52.400;16.920;2023-08-24T04:05:03;100938.59;;;17.36;69.27
35577;BME280;21680;52.400;16.920;2023-08-24T04:07:28;100943.10;;;17.36;69.47
35577;BME280;21680;52.400;16.920;2023-08-24T04:09:53;100937.59;;;17.37;69.60
35577;BME280;21680;52.400;16.920;2023-08-24T04:12:19;100938.27;;;17.38;69.60
35577;BME280;21680;52.400;16.920;2023-08-24T04:14:44;100938.80;;;17.38;69.79
35577;BME280;21680;52.400;16.920;2023-08-24T04:17:09;100940.45;;;17.40;69.86
35577;BME280;21680;52.400;16.920;2023-08-24T04:19:37;100945.21;;;17.42;69.87
35577;BME280;21680;52.400;16.920;2023-08-24T04:22:03;100953.42;;;17.43;69.97
35577;BME280;21680;52.400;16.920;2023-08-24T04:24:29;100952.41;;;17.40;69.91
35577;BME280;21680;52.400;16.920;2023-08-24T04:26:54;100955.56;;;17.36;70.05
35577;BME280;21680;52.400;16.920;2023-08-24T04:29:19;100954.20;;;17.35;70.34
35577;BME280;21680;52.400;16.920;2023-08-24T04:31:45;100957.21;;;17.33;70.30
35577;BME280;21680;52.400;16.920;2023-08-24T04:34:10;100960.71;;;17.32;70.41
35577;BME280;21680;52.400;16.920;2023-08-24T04:36:37;100957.51;;;17.31;70.55
35577;BME280;21680;52.400;16.920;2023-08-24T04:39:02;100956.27;;;17.31;70.47
35577;BME280;21680;52.400;16.920;2023-08-24T04:41:27;100957.22;;;17.30;70.56
35577;BME280;21680;52.400;16.920;2023-08-24T04:43:54;100951.27;;;17.30;70.62
35577;BME280;21680;52.400;16.920;2023-08-24T04:46:20;100955.19;;;17.31;70.90
35577;BME280;21680;52.400;16.920;2023-08-24T04:48:45;100955.77;;;17.35;71.22
35577;BME280;21680;52.400;16.920;2023-08-24T04:51:10;100955.02;;;17.41;71.27
35577;BME280;21680;52.400;16.920;2023-08-24T04:53:35;100956.80;;;17.47;71.42
35577;BME280;21680;52.400;16.920;2023-08-24T04:56:01;100959.44;;;17.53;71.50
35577;BME280;21680;52.400;16.920;2023-08-24T04:58:26;100955.31;;;17.58;71.44
35577;BME280;21680;52.400;16.920;2023-08-24T05:00:51;100954.33;;;17.62;71.57
35577;BME280;21680;52.400;16.920;2023-08-24T05:03:17;100955.54;;;17.66;71.57
35577;BME280;21680;52.400;16.920;2023-08-24T05:05:42;100952.45;;;17.69;71.66
35577;BME280;21680;52.400;16.920;2023-08-24T05:08:07;100954.90;;;17.75;71.88
35577;BME280;21680;52.400;16.920;2023-08-24T05:10:36;100954.42;;;17.82;71.87
35577;BME280;21680;52.400;16.920;2023-08-24T05:13:01;100951.63;;;17.86;71.67
35577;BME280;21680;52.400;16.920;2023-08-24T05:15:27;100950.86;;;17.87;71.78
35577;BME280;21680;52.400;16.920;2023-08-24T05:17:52;100948.67;;;17.87;71.96
35577;BME280;21680;52.400;16.920;2023-08-24T05:20:20;100944.35;;;17.92;71.89
35577;BME280;21680;52.400;16.920;2023-08-24T05:22:46;100944.94;;;17.94;71.96
35577;BME280;21680;52.400;16.920;2023-08-24T05:25:11;100944.27;;;17.94;71.95
35577;BME280;21680;52.400;16.920;2023-08-24T05:27:37;100950.76;;;17.94;71.98
35577;BME280;21680;52.400;16.920;2023-08-24T05:30:03;100943.02;;;17.96;72.11
35577;BME280;21680;52.400;16.920;2023-08-24T05:32:30;100943.64;;;17.97;72.05
35577;BME280;21680;52.400;16.920;2023-08-24T05:34:56;100943.70;;;17.99;72.08
35577;BME280;21680;52.400;16.920;2023-08-24T05:37:21;100936.14;;;18.01;72.15
35577;BME280;21680;52.400;16.920;2023-08-24T05:39:46;100935.77;;;18.04;72.07
35577;BME280;21680;52.400;16.920;2023-08-24T05:42:11;100940.46;;;18.06;72.12
35577;BME280;21680;52.400;16.920;2023-08-24T05:44:37;100947.21;;;18.10;72.25
35577;BME280;21680;52.400;16.920;2023-08-24T05:47:02;100946.74;;;18.15;72.19
35577;BME280;21680;52.400;16.920;2023-08-24T05:49:27;100954.44;;;18.19;72.06
35577;BME280;21680;52.400;16.920;2023-08-24T05:51:53;100958.20;;;18.21;72.02
35577;BME280;21680;52.400;16.920;2023-08-24T05:54:19;100957.61;;;18.24;72.05
35577;BME280;21680;52.400;16.920;2023-08-24T05:56:47;100958.91;;;18.29;72.11
35577;BME280;21680;52.400;16.920;2023-08-24T05:59:14;100962.44;;;18.33;72.10
35577;BME280;21680;52.400;16.920;2023-08-24T06:01:39;100962.66;;;18.37;72.10
35577;BME280;21680;52.400;16.920;2023-08-24T06:04:06;100964.95;;;18.41;72.16
35577;BME280;21680;52.400;16.920;2023-08-24T06:06:32;100965.23;;;18.44;72.12
35577;BME280;21680;52.400;16.920;2023-08-24T06:08:57;100965.05;;;18.49;72.14
35577;BME280;21680;52.400;16.920;2023-08-24T06:11:23;100965.48;;;18.56;72.12
35577;BME280;21680;52.400;16.920;2023-08-24T06:13:48;100967.46;;;18.62;72.04
35577;BME280;21680;52.400;16.920;2023-08-24T06:16:14;100970.08;;;18.68;72.06
35577;BME280;21680;52.400;16.920;2023-08-24T06:18:39;100966.96;;;18.76;72.15
35577;BME280;21680;52.400;16.920;2023-08-24T06:21:04;100968.55;;;18.84;72.15
35577;BME280;21680;52.400;16.920;2023-08-24T06:23:30;100969.14;;;18.93;72.13
35577;BME280;21680;52.400;16.920;2023-08-24T06:25:55;100962.52;;;19.02;72.12
35577;BME280;21680;52.400;16.920;2023-08-24T06:28:20;100960.09;;;19.10;72.04
35577;BME280;21680;52.400;16.920;2023-08-24T06:30:45;100958.55;;;19.19;71.99
35577;BME280;21680;52.400;16.920;2023-08-24T06:33:12;100959.44;;;19.26;71.98
35577;BME280;21680;52.400;16.920;2023-08-24T06:35:38;100957.84;;;19.36;71.89
35577;BME280;21680;52.400;16.920;2023-08-24T06:38:03;100956.77;;;19.45;71.86
35577;BME280;21680;52.400;16.920;2023-08-24T06:40:29;100952.70;;;19.54;71.66
35577;BME280;21680;52.400;16.920;2023-08-24T06:42:56;100952.41;;;19.64;71.48
35577;BME280;21680;52.400;16.920;2023-08-24T06:45:21;100943.82;;;19.74;71.28
35577;BME280;21680;52.400;16.920;2023-08-24T06:47:46;100943.87;;;19.86;71.01
35577;BME280;21680;52.400;16.920;2023-08-24T06:50:12;100940.83;;;19.97;70.70
35577;BME280;21680;52.400;16.920;2023-08-24T06:52:37;100937.48;;;20.07;70.45
35577;BME280;21680;52.400;16.920;2023-08-24T06:55:04;100940.70;;;20.15;70.23
35577;BME280;21680;52.400;16.920;2023-08-24T06:57:30;100942.84;;;20.22;69.92
35577;BME280;21680;52.400;16.920;2023-08-24T06:59:55;100941.54;;;20.29;69.66
35577;BME280;21680;52.400;16.920;2023-08-24T07:02:21;100939.77;;;20.36;69.50
35577;BME280;21680;52.400;16.920;2023-08-24T07:04:46;100940.67;;;20.43;69.26
35577;BME280;21680;52.400;16.920;2023-08-24T07:07:11;100946.79;;;20.48;68.82
35577;BME280;21680;52.400;16.920;2023-08-24T07:09:37;100949.35;;;20.50;68.44
35577;BME280;21680;52.400;16.920;2023-08-24T07:12:04;100952.97;;;20.55;68.10
35577;BME280;21680;52.400;16.920;2023-08-24T07:14:32;100960.27;;;20.59;67.80
35577;BME280;21680;52.400;16.920;2023-08-24T07:16:58;100953.56;;;20.63;67.62
35577;BME280;21680;52.400;16.920;2023-08-24T07:19:23;100954.01;;;20.67;67.22
35577;BME280;21680;52.400;16.920;2023-08-24T07:21:49;100958.17;;;20.76;67.10
35577;BME280;21680;52.400;16.920;2023-08-24T07:24:14;100957.56;;;20.85;66.68
35577;BME280;21680;52.400;16.920;2023-08-24T07:26:40;100954.95;;;20.92;66.37
35577;BME280;21680;52.400;16.920;2023-08-24T07:29:06;100958.49;;;21.00;66.08
35577;BME280;21680;52.400;16.920;2023-08-24T07:31:32;100958.48;;;21.09;65.90
35577;BME280;21680;52.400;16.920;2023-08-24T07:33:57;100958.00;;;21.17;65.47
35577;BME280;21680;52.400;16.920;2023-08-24T07:36:23;100955.96;;;21.22;65.05
35577;BME280;21680;52.400;16.920;2023-08-24T07:38:49;100958.48;;;21.29;64.87
35577;BME280;21680;52.400;16.920;2023-08-24T07:41:14;100957.73;;;21.40;64.19
35577;BME280;21680;52.400;16.920;2023-08-24T07:43:39;100953.92;;;21.47;64.08
35577;BME280;21680;52.400;16.920;2023-08-24T07:46:05;100955.10;;;21.58;63.95
35577;BME280;21680;52.400;16.920;2023-08-24T07:48:30;100958.06;;;21.73;63.70
35577;BME280;21680;52.400;16.920;2023-08-24T07:50:55;100963.58;;;21.89;63.44
35577;BME280;21680;52.400;16.920;2023-08-24T07:53:21;100963.98;;;22.02;63.11
35577;BME280;21680;52.400;16.920;2023-08-24T07:55:46;100963.63;;;22.08;62.63
35577;BME280;21680;52.400;16.920;2023-08-24T07:58:12;100965.23;;;22.14;62.51
35577;BME280;21680;52.400;16.920;2023-08-24T08:00:37;100961.30;;;22.22;62.12
35577;BME280;21680;52.400;16.920;2023-08-24T08:03:03;100962.41;;;22.30;61.99
35577;BME280;21680;52.400;16.920;2023-08-24T08:05:29;100965.97;;;22.39;61.70
35577;BME280;21680;52.400;16.920;2023-08-24T08:07:54;100962.75;;;22.45;61.60
35577;BME280;21680;52.400;16.920;2023-08-24T08:10:19;100961.50;;;22.46;61.24
35577;BME280;21680;52.400;16.920;2023-08-24T08:12:46;100965.43;;;22.50;61.24
35577;BME280;21680;52.400;16.920;2023-08-24T08:15:11;100962.41;;;22.49;60.64
35577;BME280;21680;52.400;16.920;2023-08-24T08:17:37;100963.70;;;22.49;60.53
35577;BME280;21680;52.400;16.920;2023-08-24T08:20:02;100963.05;;;22.50;60.42
35577;BME280;21680;52.400;16.920;2023-08-24T08:22:28;100963.39;;;22.50;59.73
35577;BME280;21680;52.400;16.920;2023-08-24T08:24:54;100962.81;;;22.49;59.98
35577;BME280;21680;52.400;16.920;2023-08-24T08:27:20;100967.13;;;22.49;59.82
35577;BME280;21680;52.400;16.920;2023-08-24T08:29:46;100966.20;;;22.47;59.55
35577;BME280;21680;52.400;16.920;2023-08-24T08:32:11;100963.14;;;22.47;59.34
35577;BME280;21680;52.400;16.920;2023-08-24T08:34:37;100962.09;;;22.48;59.27
35577;BME280;21680;52.400;16.920;2023-08-24T08:37:03;100966.82;;;22.50;59.09
35577;BME280;21680;52.400;16.920;2023-08-24T08:39:28;100973.67;;;22.53;58.90
35577;BME280;21680;52.400;16.920;2023-08-24T08:41:53;100970.10;;;22.52;58.38
35577;BME280;21680;52.400;16.920;2023-08-24T08:44:20;100972.10;;;22.55;58.33
35577;BME280;21680;52.400;16.920;2023-08-24T08:46:47;100968.30;;;22.58;58.09
35577;BME280;21680;52.400;16.920;2023-08-24T08:49:15;100972.52;;;22.62;57.96
35577;BME280;21680;52.400;16.920;2023-08-24T08:51:42;100975.73;;;22.65;57.73
35577;BME280;21680;52.400;16.920;2023-08-24T08:54:07;100973.52;;;22.67;57.31
35577;BME280;21680;52.400;16.920;2023-08-24T08:56:33;100972.88;;;22.66;57.41
35577;BME280;21680;52.400;16.920;2023-08-24T08:58:59;100977.99;;;22.70;57.33
35577;BME280;21680;52.400;16.920;2023-08-24T09:01:28;100980.06;;;22.76;57.43
35577;BME280;21680;52.400;16.920;2023-08-24T09:03:54;100979.96;;;22.79;57.06
35577;BME280;21680;52.400;16.920;2023-08-24T09:06:20;100983.59;;;22.79;56.79
35577;BME280;21680;52.400;16.920;2023-08-24T09:08:47;100975.55;;;22.79;56.46
35577;BME280;21680;52.400;16.920;2023-08-24T09:11:14;100972.88;;;22.83;56.22
35577;BME280;21680;52.400;16.920;2023-08-24T09:13:40;100969.95;;;22.85;56.08
35577;BME280;21680;52.400;16.920;2023-08-24T09:16:06;100967.03;;;22.89;55.88
35577;BME280;21680;52.400;16.920;2023-08-24T09:18:39;100967.86;;;22.94;55.84
35577;BME280;21680;52.400;16.920;2023-08-24T09:21:09;100962.44;;;22.97;55.61
35577;BME280;21680;52.400;16.920;2023-08-24T09:23:34;100960.41;;;23.02;55.70
35577;BME280;21680;52.400;16.920;2023-08-24T09:26:00;100955.90;;;23.07;55.32
35577;BME280;21680;52.400;16.920;2023-08-24T09:28:25;100959.49;;;23.16;55.31
35577;BME280;21680;52.400;16.920;2023-08-24T09:30:54;100957.56;;;23.21;54.99
35577;BME280;21680;52.400;16.920;2023-08-24T09:33:20;100952.58;;;23.22;54.84
35577;BME280;21680;52.400;16.920;2023-08-24T09:35:53;100954.53;;;23.24;53.99
35577;BME280;21680;52.400;16.920;2023-08-24T09:38:22;100950.96;;;23.25;53.91
35577;BME280;21680;52.400;16.920;2023-08-24T09:40:53;100951.40;;;23.28;54.00
35577;BME280;21680;52.400;16.920;2023-08-24T09:43:18;100951.51;;;23.35;53.92
35577;BME280;21680;52.400;16.920;2023-08-24T09:45:52;100946.74;;;23.43;53.81
35577;BME280;21680;52.400;16.920;2023-08-24T09:48:18;100945.27;;;23.53;53.78
35577;BME280;21680;52.400;16.920;2023-08-24T09:50:45;100941.80;;;23.59;53.67
35577;BME280;21680;52.400;16.920;2023-08-24T09:53:19;100937.66;;;23.60;53.68
35577;BME280;21680;52.400;16.920;2023-08-24T09:58:14;100931.93;;;23.73;53.38
35577;BME280;21680;52.400;16.920;2023-08-24T10:00:41;100922.77;;;23.73;53.34
35577;BME280;21680;52.400;16.920;2023-08-24T10:03:10;100920.50;;;23.74;53.27
35577;BME280;21680;52.400;16.920;2023-08-24T10:05:37;100918.11;;;23.78;53.32
35577;BME280;21680;52.400;16.920;2023-08-24T10:08:03;100913.63;;;23.83;53.24
35577;BME280;21680;52.400;16.920;2023-08-24T10:10:31;100908.65;;;23.85;53.14
35577;BME280;21680;52.400;16.920;2023-08-24T10:12:59;100906.27;;;23.89;52.97
35577;BME280;21680;52.400;16.920;2023-08-24T10:15:29;100903.48;;;23.93;52.79
35577;BME280;21680;52.400;16.920;2023-08-24T10:17:56;100901.34;;;23.93;52.47
35577;BME280;21680;52.400;16.920;2023-08-24T10:20:23;100908.20;;;23.96;52.42
35577;BME280;21680;52.400;16.920;2023-08-24T10:22:50;100910.53;;;23.98;52.03
35577;BME280;21680;52.400;16.920;2023-08-24T10:25:16;100909.80;;;24.02;52.21
35577;BME280;21680;52.400;16.920;2023-08-24T10:27:44;100900.45;;;24.08;52.01
35577;BME280;21680;52.400;16.920;2023-08-24T10:30:13;100897.73;;;24.17;51.83
35577;BME280;21680;52.400;16.920;2023-08-24T10:32:39;100889.09;;;24.27;51.94
35577;BME280;21680;52.400;16.920;2023-08-24T10:35:06;100881.17;;;24.38;51.83
35577;BME280;21680;52.400;16.920;2023-08-24T10:37:32;100885.30;;;24.46;51.61
35577;BME280;21680;52.400;16.920;2023-08-24T10:39:59;100884.00;;;24.53;51.52
35577;BME280;21680;52.400;16.920;2023-08-24T10:42:25;100878.02;;;24.62;51.46
35577;BME280;21680;52.400;16.920;2023-08-24T10:44:52;100877.80;;;24.77;51.56
35577;BME280;21680;52.400;16.920;2023-08-24T10:49:43;100872.10;;;25.03;51.21
35577;BME280;21680;52.400;16.920;2023-08-24T10:54:52;100863.90;;;25.32;50.77
35577;BME280;21680;52.400;16.920;2023-08-24T10:57:19;100864.27;;;25.37;50.36
35577;BME280;21680;52.400;16.920;2023-08-24T10:59:45;100863.55;;;25.40;49.99
35577;BME280;21680;52.400;16.920;2023-08-24T11:02:18;100857.26;;;25.46;49.63
35577;BME280;21680;52.400;16.920;2023-08-24T11:05:06;100855.11;;;25.62;49.61
35577;BME280;21680;52.400;16.920;2023-08-24T11:07:32;100849.19;;;25.82;49.38
35577;BME280;21680;52.400;16.920;2023-08-24T11:09:58;100840.42;;;25.91;48.94
35577;BME280;21680;52.400;16.920;2023-08-24T11:12:23;100844.08;;;25.99;48.63
35577;BME280;21680;52.400;16.920;2023-08-24T11:14:52;100847.35;;;26.03;48.06
35577;BME280;21680;52.400;16.920;2023-08-24T11:17:24;100838.65;;;26.12;48.13
35577;BME280;21680;52.400;16.920;2023-08-24T11:19:54;100836.20;;;26.35;48.03
35577;BME280;21680;52.400;16.920;2023-08-24T11:22:20;100838.40;;;26.56;47.67
35577;BME280;21680;52.400;16.920;2023-08-24T11:24:49;100832.45;;;26.62;47.20
35577;BME280;21680;52.400;16.920;2023-08-24T11:27:14;100834.30;;;26.62;47.03
35577;BME280;21680;52.400;16.920;2023-08-24T11:29:41;100840.55;;;26.68;46.65
35577;BME280;21680;52.400;16.920;2023-08-24T11:32:06;100837.49;;;26.61;46.14
35577;BME280;21680;52.400;16.920;2023-08-24T11:34:31;100827.30;;;26.64;46.31
35577;BME280;21680;52.400;16.920;2023-08-24T11:36:57;100824.64;;;26.69;46.27
35577;BME280;21680;52.400;16.920;2023-08-24T11:39:23;100822.08;;;26.76;46.43
35577;BME280;21680;52.400;16.920;2023-08-24T11:42:01;100820.41;;;26.88;46.48
35577;BME280;21680;52.400;16.920;2023-08-24T11:44:28;100819.80;;;26.99;46.50
35577;BME280;21680;52.400;16.920;2023-08-24T11:46:56;100822.05;;;27.03;46.36
35577;BME280;21680;52.400;16.920;2023-08-24T11:49:21;100822.56;;;27.15;46.43
35577;BME280;21680;52.400;16.920;2023-08-24T11:51:47;100818.77;;;27.28;45.88
35577;BME280;21680;52.400;16.920;2023-08-24T11:54:17;100821.86;;;27.31;45.85
35577;BME280;21680;52.400;16.920;2023-08-24T11:56:44;100819.08;;;27.33;45.79
35577;BME280;21680;52.400;16.920;2023-08-24T11:59:13;100817.89;;;27.54;45.62
35577;BME280;21680;52.400;16.920;2023-08-24T12:01:40;100817.05;;;27.76;45.32
35577;BME280;21680;52.400;16.920;2023-08-24T12:04:06;100818.79;;;27.88;45.12
35577;BME280;21680;52.400;16.920;2023-08-24T12:06:32;100818.27;;;27.88;44.54
35577;BME280;21680;52.400;16.920;2023-08-24T12:08:57;100814.36;;;27.75;44.28
35577;BME280;21680;52.400;16.920;2023-08-24T12:11:23;100818.41;;;27.78;44.51
35577;BME280;21680;52.400;16.920;2023-08-24T12:13:52;100813.58;;;27.90;44.42
35577;BME280;21680;52.400;16.920;2023-08-24T12:16:18;100805.77;;;28.07;44.41
35577;BME280;21680;52.400;16.920;2023-08-24T12:18:57;100804.13;;;28.23;44.07
35577;BME280;21680;52.400;16.920;2023-08-24T12:21:28;100801.27;;;28.43;44.15
35577;BME280;21680;52.400;16.920;2023-08-24T12:24:05;100802.67;;;28.46;43.74
35577;BME280;21680;52.400;16.920;2023-08-24T12:26:31;100799.02;;;28.26;43.28
35577;BME280;21680;52.400;16.920;2023-08-24T12:29:01;100802.29;;;27.88;43.20
35577;BME280;21680;52.400;16.920;2023-08-24T12:31:28;100801.59;;;27.73;43.51
35577;BME280;21680;52.400;16.920;2023-08-24T12:33:59;100797.80;;;27.72;43.70
35577;BME280;21680;52.400;16.920;2023-08-24T12:36:25;100792.63;;;27.79;43.81
35577;BME280;21680;52.400;16.920;2023-08-24T12:38:53;100784.42;;;27.88;43.64
35577;BME280;21680;52.400;16.920;2023-08-24T12:41:24;100778.85;;;28.01;43.96
35577;BME280;21680;52.400;16.920;2023-08-24T12:43:50;100778.16;;;28.14;43.73
35577;BME280;21680;52.400;16.920;2023-08-24T12:46:16;100778.71;;;28.33;43.66